Power, MT (59468)

2:09 AM MST on January 18, 2017 (GMT -0700)
Burgmaier Farm | | Change Station

Elev 3753 ft 47.74 °N, 111.58 °W | Updated 3 seconds ago

Partly Cloudy
Partly Cloudy
38.3 °F
Feels Like 30 °F
N
14.0
Wind Variable Wind from SSW
Gusts 19.0 mph

Today
High -- | Low -- °F
--% Chance of Precip.
Yesterday
High -- | Low -- °F
Precip. -- in
Pressure 29.70 in
Visibility 10.0 miles
Clouds Clear
Windchill 30 °F
Dew Point 28 °F
Humidity 64%
Rainfall 0.00 in
Snow Depth Not available.
8:08 AM 5:06 PM
Waning Gibbous, 65% visible
METAR KGTF 180853Z 21024KT 10SM CLR 05/M04 A2965 RMK AO2 PK WND 21031/0846 SLP057 T00501039 58011
Pressure 29.70 in
Visibility 10.0 miles
Clouds Clear
Windchill 30 °F
Dew Point 28 °F
Humidity 64%
Rainfall 0.00 in
Snow Depth Not available.
8:08 AM 5:06 PM
Waning Gibbous, 65% visible
METAR KGTF 180853Z 21024KT 10SM CLR 05/M04 A2965 RMK AO2 PK WND 21031/0846 SLP057 T00501039 58011

Get Your Daily Forecast Email!

Thanks for signing up!

Be on the lookout for a verification email in your inbox.

You'll start receiving the daily forecast at 8 AM.

×

10-Day Weather Forecast

Almanac

Astronomy

Jan. 18, 2017 Rise Set
Actual Time
Civil Twilight
Nautical Twilight
Astronomical Twilight
Moon
Length of Visible Light
Length of Day
Tomorrow will be .
, % of the Moon is Illuminated

Today's Extremes

State Highs State Lows

Community

WunderPhotos

Upload Photos

1,962,540 photos uploaded!

WunderBlog® & News

Nearby

Air Quality

  Air Quality AQ Index Pollutant
Not available.

Snow Depth

Station Depth Elevation

Earthquake Activity

City Distance Mag. Time & Date
Minimum magnitude displayed is 2.5.

Coastal Water Temperatures

Place Temperature

Stations

Nearby Weather Stations

Station Location Temp. Windchill Dew Point Humidity Wind Precip. Elev Updated Type
                   

Watches & Warnings

There are currently no watches in effect.